createdAt,value
2022-11-27T00:00:10.410Z,74.45
2022-11-27T00:02:40.686Z,73.95
2022-11-27T00:05:08.299Z,73.96
2022-11-27T00:07:39.567Z,74.06
2022-11-27T00:10:07.063Z,74.01
2022-11-27T00:12:34.223Z,73.59
2022-11-27T00:15:05.573Z,74.12
2022-11-27T00:17:33.077Z,74.34
2022-11-27T00:20:02.454Z,74.12
2022-11-27T00:22:29.534Z,74.32
2022-11-27T00:25:05.657Z,75.50
2022-11-27T00:27:32.704Z,74.81
2022-11-27T00:30:06.227Z,75.27
2022-11-27T00:32:35.219Z,75.28
2022-11-27T00:35:02.102Z,75.18
2022-11-27T00:37:32.372Z,75.08
2022-11-27T00:40:00.031Z,75.03
2022-11-27T00:42:26.777Z,75.30
2022-11-27T00:44:55.532Z,75.46
2022-11-27T00:47:23.049Z,75.37
2022-11-27T00:49:50.286Z,74.53
2022-11-27T00:52:17.047Z,74.90
2022-11-27T00:54:45.891Z,74.58
2022-11-27T00:57:23.231Z,75.23
2022-11-27T00:59:52.930Z,75.03
2022-11-27T01:02:20.610Z,74.04
2022-11-27T01:04:50.573Z,74.13
2022-11-27T01:07:17.430Z,74.35
2022-11-27T01:09:45.383Z,74.38
2022-11-27T01:12:18.002Z,74.15
2022-11-27T01:14:44.782Z,74.42
2022-11-27T01:17:11.421Z,73.90
2022-11-27T01:19:39.953Z,74.43
2022-11-27T01:22:06.788Z,73.82
2022-11-27T01:24:33.524Z,74.08
2022-11-27T01:27:02.381Z,74.17
2022-11-27T01:29:36.143Z,74.38
2022-11-27T01:32:02.729Z,73.48
2022-11-27T01:34:34.527Z,73.03
2022-11-27T01:37:05.786Z,72.96
2022-11-27T01:39:38.415Z,72.70
2022-11-27T01:42:05.212Z,72.70
2022-11-27T01:44:48.187Z,72.67
2022-11-27T01:47:22.194Z,72.43
2022-11-27T01:50:06.131Z,72.66
2022-11-27T01:52:41.784Z,73.15
2022-11-27T01:55:19.020Z,72.89
2022-11-27T01:57:53.955Z,73.08
2022-11-27T02:00:25.954Z,73.18
2022-11-27T02:02:53.569Z,73.62
2022-11-27T02:05:25.499Z,73.57
2022-11-27T02:07:58.319Z,72.97
2022-11-27T02:10:53.794Z,73.18
2022-11-27T02:13:35.032Z,73.17
2022-11-27T02:16:26.344Z,73.53
2022-11-27T02:19:06.389Z,73.05
2022-11-27T02:21:58.705Z,73.32
2022-11-27T02:24:33.759Z,72.98
2022-11-27T02:27:38.211Z,72.94
2022-11-27T02:30:10.199Z,73.13
2022-11-27T02:32:50.376Z,72.77
2022-11-27T02:35:37.995Z,73.17
2022-11-27T02:38:21.114Z,73.27
2022-11-27T02:41:09.842Z,73.58
2022-11-27T02:43:41.192Z,74.08
2022-11-27T02:46:10.759Z,74.49
2022-11-27T02:48:55.715Z,73.73
2022-11-27T02:51:38.210Z,73.48
2022-11-27T02:54:24.398Z,73.25
2022-11-27T02:56:57.146Z,73.39
2022-11-27T02:59:27.010Z,72.90
2022-11-27T03:02:05.121Z,73.16
2022-11-27T03:04:42.635Z,73.08
2022-11-27T03:07:17.110Z,73.99
2022-11-27T03:09:54.967Z,74.12
2022-11-27T03:12:22.799Z,73.78
2022-11-27T03:14:52.182Z,74.10
2022-11-27T03:17:46.889Z,73.92
2022-11-27T03:20:21.154Z,73.72
2022-11-27T03:22:47.978Z,73.94
2022-11-27T03:25:20.617Z,73.88
2022-11-27T03:28:01.058Z,74.52
2022-11-27T03:30:28.093Z,74.77
2022-11-27T03:33:05.276Z,75.17
2022-11-27T03:35:35.082Z,74.68
2022-11-27T03:38:07.597Z,75.43
2022-11-27T03:41:08.474Z,75.39
2022-11-27T03:43:47.086Z,74.92
2022-11-27T03:46:31.664Z,75.37
2022-11-27T03:49:29.740Z,75.45
2022-11-27T03:52:33.024Z,75.17
2022-11-27T03:55:24.942Z,75.51
2022-11-27T03:58:09.735Z,75.67
2022-11-27T04:00:45.769Z,75.19
2022-11-27T04:03:14.206Z,75.77
2022-11-27T04:05:47.074Z,74.94
2022-11-27T04:08:17.077Z,75.41
2022-11-27T04:10:43.893Z,75.41
2022-11-27T04:13:16.240Z,74.89
2022-11-27T04:15:51.967Z,74.59
2022-11-27T04:18:22.124Z,74.76
2022-11-27T04:20:54.537Z,74.52
2022-11-27T04:23:21.290Z,74.42
2022-11-27T04:25:49.145Z,73.78
2022-11-27T04:28:30.912Z,74.47
2022-11-27T04:30:59.950Z,73.24
2022-11-27T04:33:27.573Z,73.56
2022-11-27T04:36:01.439Z,74.17
2022-11-27T04:38:32.664Z,74.81
2022-11-27T04:41:01.558Z,75.00
2022-11-27T04:43:29.521Z,74.92
2022-11-27T04:46:03.899Z,74.95
2022-11-27T04:48:33.614Z,75.21
2022-11-27T04:51:09.676Z,75.45
2022-11-27T04:53:36.592Z,75.13
2022-11-27T04:56:06.271Z,74.95
2022-11-27T04:58:43.781Z,75.03
2022-11-27T05:01:17.113Z,75.24
2022-11-27T05:03:43.809Z,74.37
2022-11-27T05:06:20.767Z,74.16
2022-11-27T05:08:47.474Z,73.99
2022-11-27T05:11:22.513Z,74.15
2022-11-27T05:14:14.816Z,74.82
2022-11-27T05:16:54.162Z,74.23
2022-11-27T05:19:25.758Z,73.67
2022-11-27T05:21:56.862Z,74.51
2022-11-27T05:24:33.620Z,73.79
2022-11-27T05:27:00.453Z,73.75
2022-11-27T05:29:27.561Z,74.51
2022-11-27T05:31:57.532Z,74.50
2022-11-27T05:34:28.975Z,74.70
2022-11-27T05:36:55.662Z,74.88
2022-11-27T05:39:29.069Z,75.14
2022-11-27T05:41:55.730Z,75.43
2022-11-27T05:44:27.267Z,75.63
2022-11-27T05:46:54.034Z,75.58
2022-11-27T05:49:22.944Z,75.26
2022-11-27T05:51:56.134Z,75.42
2022-11-27T05:54:22.931Z,75.58
2022-11-27T05:57:00.073Z,75.54
2022-11-27T05:59:40.119Z,75.84
2022-11-27T06:02:18.090Z,75.70
2022-11-27T06:04:48.786Z,75.96
2022-11-27T06:07:15.641Z,75.92
2022-11-27T06:09:46.603Z,75.47
2022-11-27T06:12:25.525Z,75.48
2022-11-27T06:14:56.359Z,75.70
2022-11-27T06:17:28.364Z,75.69
2022-11-27T06:19:55.099Z,75.52
2022-11-27T06:22:24.834Z,75.94
2022-11-27T06:25:01.671Z,75.80
2022-11-27T06:27:33.862Z,76.17
2022-11-27T06:30:00.460Z,75.70
2022-11-27T06:32:27.181Z,76.37
2022-11-27T06:34:56.675Z,75.38
2022-11-27T06:37:24.653Z,75.98
2022-11-27T06:39:52.587Z,74.85
2022-11-27T06:42:19.569Z,74.98
2022-11-27T06:44:47.651Z,74.53
2022-11-27T06:47:17.402Z,74.38
2022-11-27T06:49:46.349Z,74.48
2022-11-27T06:52:13.037Z,73.54
2022-11-27T06:54:40.130Z,73.69
2022-11-27T06:57:07.106Z,73.38
2022-11-27T06:59:34.663Z,73.83
2022-11-27T07:02:01.474Z,74.02
2022-11-27T07:04:28.218Z,73.74
2022-11-27T07:06:55.419Z,73.71
2022-11-27T07:09:22.123Z,73.71
2022-11-27T07:11:55.240Z,73.35
2022-11-27T07:14:22.148Z,73.60
2022-11-27T07:16:49.121Z,73.52
2022-11-27T07:19:18.536Z,73.17
2022-11-27T07:21:45.218Z,73.03
2022-11-27T07:24:11.973Z,72.51
2022-11-27T07:26:39.151Z,73.08
2022-11-27T07:29:05.871Z,72.72
2022-11-27T07:31:33.643Z,72.37
2022-11-27T07:34:00.344Z,72.92
2022-11-27T07:36:29.740Z,73.35
2022-11-27T07:38:59.778Z,73.56
2022-11-27T07:41:32.273Z,73.22
2022-11-27T07:44:00.727Z,73.50
2022-11-27T07:46:30.793Z,73.17
2022-11-27T07:48:58.568Z,73.14
2022-11-27T07:51:25.332Z,72.70
2022-11-27T07:53:54.542Z,73.08
2022-11-27T07:56:23.907Z,72.60
2022-11-27T07:58:51.396Z,72.51
2022-11-27T08:01:19.704Z,72.38
2022-11-27T08:03:47.026Z,72.33
2022-11-27T08:06:26.157Z,71.68
2022-11-27T08:08:55.981Z,71.53
2022-11-27T08:11:30.312Z,71.41
2022-11-27T08:14:03.495Z,71.14
2022-11-27T08:16:32.376Z,70.73
2022-11-27T08:18:59.402Z,71.36
2022-11-27T08:21:27.651Z,70.84
2022-11-27T08:24:00.746Z,70.51
2022-11-27T08:26:28.320Z,71.26
2022-11-27T08:28:56.357Z,71.50
2022-11-27T08:31:23.904Z,70.79
2022-11-27T08:33:50.732Z,71.28
2022-11-27T08:36:18.316Z,71.35
2022-11-27T08:38:47.439Z,70.85
2022-11-27T08:41:15.570Z,70.04
2022-11-27T08:43:42.394Z,70.26
2022-11-27T08:46:11.922Z,69.83
2022-11-27T08:48:39.002Z,69.98
2022-11-27T08:51:12.122Z,70.28
2022-11-27T08:53:40.399Z,69.76
2022-11-27T08:56:10.060Z,69.90
2022-11-27T08:58:41.132Z,70.02
2022-11-27T09:01:22.961Z,70.75
2022-11-27T09:03:50.469Z,70.17
2022-11-27T09:06:21.479Z,68.97
2022-11-27T09:09:09.965Z,69.99
2022-11-27T09:11:39.932Z,70.27
2022-11-27T09:14:17.327Z,70.31
2022-11-27T09:16:46.674Z,70.58
2022-11-27T09:19:13.412Z,70.25
2022-11-27T09:21:40.464Z,70.41
2022-11-27T09:24:07.503Z,69.88
2022-11-27T09:26:34.356Z,69.70
2022-11-27T09:29:01.065Z,70.55
2022-11-27T09:31:28.216Z,69.26
2022-11-27T09:33:55.057Z,69.44
2022-11-27T09:36:24.755Z,68.86
2022-11-27T09:38:52.220Z,69.22
2022-11-27T09:41:55.049Z,68.90
2022-11-27T09:44:39.966Z,69.76
2022-11-27T09:47:12.267Z,69.61
2022-11-27T09:49:45.425Z,68.62
2022-11-27T09:52:21.759Z,69.17
2022-11-27T09:54:57.743Z,69.38
2022-11-27T09:57:39.379Z,69.24
2022-11-27T10:00:28.952Z,69.17
2022-11-27T10:03:03.876Z,68.49
2022-11-27T10:05:54.797Z,69.06
2022-11-27T10:08:34.139Z,68.59
2022-11-27T10:11:12.871Z,67.70
2022-11-27T10:13:57.698Z,67.98
2022-11-27T10:16:45.179Z,67.33
2022-11-27T10:19:41.134Z,67.37
2022-11-27T10:22:19.673Z,67.68
2022-11-27T10:25:21.814Z,68.46
2022-11-27T10:28:22.007Z,67.58
2022-11-27T10:30:58.769Z,67.96
2022-11-27T10:33:43.755Z,67.79
2022-11-27T10:36:39.373Z,67.93
2022-11-27T10:39:44.513Z,68.14
2022-11-27T10:42:36.729Z,68.11
2022-11-27T10:45:08.542Z,67.62
2022-11-27T10:47:40.476Z,67.21
2022-11-27T10:50:14.929Z,66.70
2022-11-27T10:53:07.474Z,64.91
2022-11-27T10:56:01.315Z,63.68
2022-11-27T10:58:36.851Z,63.01
2022-11-27T11:01:09.568Z,62.83
2022-11-27T11:03:36.934Z,62.95
2022-11-27T11:06:26.886Z,63.04
2022-11-27T11:09:14.815Z,63.48
2022-11-27T11:11:47.704Z,63.76
2022-11-27T11:14:29.969Z,63.54
2022-11-27T11:16:56.666Z,63.55
2022-11-27T11:19:35.888Z,64.11
2022-11-27T11:22:14.794Z,64.45
2022-11-27T11:24:47.900Z,64.74
2022-11-27T11:27:24.663Z,64.16
2022-11-27T11:30:07.809Z,64.23
2022-11-27T11:32:42.374Z,63.99
2022-11-27T11:35:24.972Z,64.93
2022-11-27T11:37:53.733Z,64.66
2022-11-27T11:40:20.732Z,64.61
2022-11-27T11:43:05.846Z,64.12
2022-11-27T11:45:35.220Z,65.09
2022-11-27T11:48:19.429Z,64.10
2022-11-27T11:50:55.960Z,64.61
2022-11-27T11:53:33.760Z,64.22
2022-11-27T11:56:18.523Z,64.15
2022-11-27T11:58:59.923Z,64.70
2022-11-27T12:01:38.700Z,64.58
2022-11-27T12:04:31.937Z,64.13
2022-11-27T12:07:15.219Z,64.52
2022-11-27T12:10:06.820Z,64.81
2022-11-27T12:12:50.440Z,64.06
2022-11-27T12:15:44.312Z,63.69
2022-11-27T12:18:17.302Z,64.00
2022-11-27T12:21:19.407Z,63.84
2022-11-27T12:24:15.955Z,64.44
2022-11-27T12:27:07.567Z,65.00
2022-11-27T12:29:51.531Z,64.41
2022-11-27T12:32:28.729Z,65.15
2022-11-27T12:35:21.514Z,64.68
2022-11-27T12:38:20.837Z,65.09
2022-11-27T12:41:07.726Z,65.64
2022-11-27T12:43:39.919Z,65.75
2022-11-27T12:46:50.175Z,65.41
2022-11-27T12:49:26.025Z,65.53
2022-11-27T12:52:20.563Z,65.45
2022-11-27T12:55:21.086Z,65.39
2022-11-27T12:57:56.929Z,65.25
2022-11-27T13:00:30.932Z,65.02
2022-11-27T13:03:08.665Z,65.79
2022-11-27T13:05:47.673Z,65.90
2022-11-27T13:08:35.693Z,65.66
2022-11-27T13:11:15.768Z,66.13
2022-11-27T13:13:48.500Z,65.77
2022-11-27T13:16:30.796Z,66.31
2022-11-27T13:19:15.227Z,65.20
2022-11-27T13:21:45.199Z,65.64
2022-11-27T13:24:13.365Z,66.11
2022-11-27T13:27:04.870Z,65.80
2022-11-27T13:29:44.170Z,65.05
2022-11-27T13:32:26.735Z,64.74
2022-11-27T13:34:57.253Z,65.32
2022-11-27T13:37:32.043Z,65.32
2022-11-27T13:40:20.121Z,65.23
2022-11-27T13:42:55.824Z,65.37
2022-11-27T13:45:35.740Z,66.16
2022-11-27T13:48:19.183Z,66.07
2022-11-27T13:50:54.597Z,65.97
2022-11-27T13:53:33.641Z,66.23
2022-11-27T13:56:00.638Z,65.27
2022-11-27T13:58:35.963Z,65.87
2022-11-27T14:01:23.134Z,66.25
2022-11-27T14:03:51.322Z,65.45
2022-11-27T14:06:28.846Z,66.28
2022-11-27T14:09:01.011Z,66.24
2022-11-27T14:11:44.614Z,65.92
2022-11-27T14:14:24.189Z,66.08
2022-11-27T14:16:59.632Z,66.91
2022-11-27T14:19:43.831Z,66.69
2022-11-27T14:22:48.453Z,66.34
2022-11-27T14:25:31.133Z,66.09
2022-11-27T14:28:09.009Z,66.61
2022-11-27T14:30:41.957Z,67.98
2022-11-27T14:33:26.993Z,66.56
2022-11-27T14:35:56.780Z,67.07
2022-11-27T14:38:27.245Z,67.11
2022-11-27T14:40:55.405Z,67.15
2022-11-27T14:43:28.428Z,67.77
2022-11-27T14:45:58.921Z,67.48
2022-11-27T14:48:46.951Z,67.36
2022-11-27T14:51:20.865Z,66.76
2022-11-27T14:53:52.427Z,66.97
2022-11-27T14:56:19.322Z,69.22
2022-11-27T14:58:54.465Z,68.77
2022-11-27T15:01:33.471Z,68.94
2022-11-27T15:04:21.974Z,69.07
2022-11-27T15:06:51.840Z,70.04
2022-11-27T15:09:32.071Z,70.11
2022-11-27T15:12:19.382Z,70.56
2022-11-27T15:15:02.373Z,70.57
2022-11-27T15:17:37.472Z,70.39
2022-11-27T15:20:18.152Z,71.43
2022-11-27T15:22:50.715Z,70.79
2022-11-27T15:25:41.133Z,71.11
2022-11-27T15:28:41.544Z,72.05
2022-11-27T15:31:29.427Z,71.59
2022-11-27T15:33:58.920Z,72.24
2022-11-27T15:36:26.186Z,73.45
2022-11-27T15:39:03.791Z,73.69
2022-11-27T15:41:31.195Z,73.80
2022-11-27T15:43:57.938Z,74.12
2022-11-27T15:46:39.445Z,74.29
2022-11-27T15:49:13.317Z,73.74
2022-11-27T15:51:40.635Z,73.53
2022-11-27T15:54:07.450Z,73.98
2022-11-27T15:56:34.349Z,73.82
2022-11-27T15:59:02.202Z,74.40
2022-11-27T16:01:29.011Z,74.78
2022-11-27T16:03:56.063Z,75.03
2022-11-27T16:06:25.621Z,75.14
2022-11-27T16:08:58.762Z,75.11
2022-11-27T16:11:26.884Z,75.30
2022-11-27T16:13:53.836Z,75.19
2022-11-27T16:16:23.931Z,76.17
2022-11-27T16:18:51.663Z,75.29
2022-11-27T16:21:18.573Z,75.22
2022-11-27T16:23:45.701Z,75.49
2022-11-27T16:26:14.912Z,75.75
2022-11-27T16:28:44.964Z,76.49
2022-11-27T16:31:13.828Z,76.72
2022-11-27T16:33:41.166Z,76.67
2022-11-27T16:36:16.070Z,76.85
2022-11-27T16:38:43.396Z,76.67
2022-11-27T16:41:13.486Z,77.14
2022-11-27T16:43:42.965Z,76.98
2022-11-27T16:46:26.011Z,77.75
2022-11-27T16:49:01.762Z,77.39
2022-11-27T16:51:35.959Z,77.08
2022-11-27T16:54:07.785Z,76.80
2022-11-27T16:56:36.370Z,77.05
2022-11-27T16:59:06.729Z,78.10
2022-11-27T17:01:40.502Z,77.94
2022-11-27T17:04:11.381Z,77.77
2022-11-27T17:06:40.941Z,78.14
2022-11-27T17:09:16.868Z,77.62
2022-11-27T17:11:53.822Z,77.92
2022-11-27T17:14:20.751Z,77.73
2022-11-27T17:16:48.128Z,77.40
2022-11-27T17:22:16.642Z,78.18
2022-11-27T17:24:48.615Z,77.72
2022-11-27T17:27:15.635Z,77.93
2022-11-27T17:29:42.599Z,77.90
2022-11-27T17:32:10.038Z,77.99
2022-11-27T17:34:39.554Z,77.96
2022-11-27T17:37:06.458Z,78.33
2022-11-27T17:39:36.154Z,78.33
2022-11-27T17:42:03.252Z,78.67
2022-11-27T17:44:30.143Z,78.95
2022-11-27T17:46:56.851Z,78.46
2022-11-27T17:49:23.572Z,78.37
2022-11-27T17:51:51.247Z,78.61
2022-11-27T17:54:18.037Z,78.39
2022-11-27T17:56:44.821Z,78.25
2022-11-27T17:59:18.441Z,78.41
2022-11-27T18:01:45.202Z,78.47
2022-11-27T18:04:18.447Z,78.65
2022-11-27T18:06:45.164Z,78.54
2022-11-27T18:09:12.548Z,78.83
2022-11-27T18:11:39.813Z,78.75
2022-11-27T18:14:09.618Z,79.01
2022-11-27T18:16:38.389Z,79.33
2022-11-27T18:19:10.811Z,79.56
2022-11-27T18:21:40.920Z,78.90
2022-11-27T18:24:25.357Z,77.83
2022-11-27T18:27:11.318Z,77.51
2022-11-27T18:29:40.733Z,77.46
2022-11-27T18:32:08.595Z,77.94
2022-11-27T18:34:35.679Z,78.20
2022-11-27T18:37:08.028Z,78.66
2022-11-27T18:39:38.687Z,78.68
2022-11-27T18:42:08.973Z,78.74
2022-11-27T18:44:44.842Z,77.93
2022-11-27T18:47:13.803Z,78.90
2022-11-27T18:49:41.146Z,78.67
2022-11-27T18:52:11.728Z,78.31
2022-11-27T18:54:38.490Z,78.48
2022-11-27T18:57:07.949Z,78.38
2022-11-27T18:59:34.982Z,78.90
2022-11-27T19:02:05.663Z,78.44
2022-11-27T19:04:43.191Z,78.30
2022-11-27T19:07:14.151Z,78.57
2022-11-27T19:09:42.803Z,77.89
2022-11-27T19:12:09.987Z,77.48
2022-11-27T19:14:36.739Z,76.89
2022-11-27T19:17:03.503Z,78.27
2022-11-27T19:22:21.086Z,78.23
2022-11-27T19:24:55.101Z,78.55
2022-11-27T19:27:26.476Z,78.79
2022-11-27T19:29:53.267Z,79.07
2022-11-27T19:32:22.115Z,78.77
2022-11-27T19:34:51.019Z,78.75
2022-11-27T19:37:33.108Z,78.96
2022-11-27T19:40:12.195Z,79.47
2022-11-27T19:42:38.777Z,79.81
2022-11-27T19:45:06.129Z,79.34
2022-11-27T19:47:32.836Z,79.24
2022-11-27T19:50:02.676Z,79.82
2022-11-27T19:52:29.415Z,79.48
2022-11-27T19:54:56.022Z,79.47
2022-11-27T19:57:22.734Z,78.48
2022-11-27T19:59:49.521Z,79.15
2022-11-27T20:02:19.467Z,77.96
2022-11-27T20:04:46.169Z,78.39
2022-11-27T20:07:15.520Z,77.96
2022-11-27T20:09:42.298Z,78.73
2022-11-27T20:12:09.349Z,78.60
2022-11-27T20:14:36.181Z,79.29
2022-11-27T20:17:03.036Z,79.18
2022-11-27T20:19:29.971Z,79.38
2022-11-27T20:21:59.893Z,79.66
2022-11-27T20:24:27.881Z,79.54
2022-11-27T20:26:54.583Z,79.86
2022-11-27T20:29:21.315Z,79.87
2022-11-27T20:31:48.850Z,80.02
2022-11-27T20:34:20.840Z,80.19
2022-11-27T20:36:48.424Z,79.66
2022-11-27T20:39:20.902Z,80.09
2022-11-27T20:41:51.989Z,80.14
2022-11-27T20:44:19.517Z,78.93
2022-11-27T20:46:49.598Z,78.61
2022-11-27T20:49:16.930Z,77.32
2022-11-27T20:51:44.202Z,77.29
2022-11-27T20:54:11.988Z,77.58
2022-11-27T20:56:38.838Z,77.23
2022-11-27T20:59:10.179Z,77.65
2022-11-27T21:01:41.674Z,77.87
2022-11-27T21:04:18.158Z,77.69
2022-11-27T21:06:47.793Z,77.62
2022-11-27T21:09:21.966Z,77.77
2022-11-27T21:11:49.848Z,78.38
2022-11-27T21:14:20.503Z,78.80
2022-11-27T21:16:50.757Z,78.52
2022-11-27T21:19:20.627Z,79.34
2022-11-27T21:21:50.775Z,79.49
2022-11-27T21:24:19.032Z,79.47
2022-11-27T21:26:50.401Z,79.04
2022-11-27T21:29:19.721Z,79.10
2022-11-27T21:31:47.492Z,78.33
2022-11-27T21:34:14.800Z,77.44
2022-11-27T21:36:44.809Z,76.99
2022-11-27T21:39:20.613Z,77.29
2022-11-27T21:41:51.560Z,77.38
2022-11-27T21:44:19.062Z,76.67
2022-11-27T21:46:47.450Z,76.22
2022-11-27T21:49:20.704Z,76.90
2022-11-27T21:51:51.603Z,77.66
2022-11-27T21:54:19.048Z,78.30
2022-11-27T21:56:50.107Z,78.38
2022-11-27T21:59:16.805Z,77.63
2022-11-27T22:01:45.728Z,78.20
2022-11-27T22:04:15.509Z,78.50
2022-11-27T22:06:43.562Z,78.10
2022-11-27T22:09:18.003Z,78.53
2022-11-27T22:11:49.281Z,78.75
2022-11-27T22:14:20.800Z,79.02
2022-11-27T22:16:48.821Z,79.40
2022-11-27T22:19:18.579Z,79.31
2022-11-27T22:21:46.487Z,79.55
2022-11-27T22:24:19.315Z,79.73
2022-11-27T22:26:51.648Z,79.84
2022-11-27T22:29:21.432Z,79.92
2022-11-27T22:31:48.275Z,79.57
2022-11-27T22:34:18.701Z,79.75
2022-11-27T22:36:51.630Z,80.12
2022-11-27T22:39:19.816Z,79.87
2022-11-27T22:41:47.469Z,80.22
2022-11-27T22:44:21.085Z,79.99
2022-11-27T22:46:51.059Z,79.07
2022-11-27T22:49:22.066Z,79.23
2022-11-27T22:51:49.215Z,78.89
2022-11-27T22:54:17.720Z,79.38
2022-11-27T22:56:47.102Z,78.64
2022-11-27T23:02:05.081Z,78.90
2022-11-27T23:04:32.212Z,78.80
2022-11-27T23:06:59.683Z,79.26
2022-11-27T23:09:26.836Z,79.08
2022-11-27T23:11:53.775Z,78.29
2022-11-27T23:14:20.558Z,78.08
2022-11-27T23:16:47.508Z,78.54
2022-11-27T23:19:14.415Z,78.50
2022-11-27T23:21:41.597Z,79.24
2022-11-27T23:24:12.098Z,78.67
2022-11-27T23:26:42.199Z,78.96
2022-11-27T23:29:09.363Z,79.08
2022-11-27T23:31:36.600Z,79.34
2022-11-27T23:34:13.765Z,79.37
2022-11-27T23:36:43.727Z,79.71
2022-11-27T23:39:13.008Z,79.57
2022-11-27T23:41:40.815Z,78.99
2022-11-27T23:44:12.373Z,79.22
2022-11-27T23:46:39.182Z,79.33
2022-11-27T23:49:06.117Z,79.25
2022-11-27T23:51:38.864Z,79.41
2022-11-27T23:54:10.722Z,79.39
2022-11-27T23:56:38.883Z,80.00
2022-11-27T23:59:05.979Z,79.96
